sensor_id;sensor_type;location;lat;lon;timestamp;temperature;humidity
7143;DHT22;3613;48.902;9.204;2023-11-21T00:00:47;7.40;99.90
7143;DHT22;3613;48.902;9.204;2023-11-21T00:03:12;7.30;99.90
7143;DHT22;3613;48.902;9.204;2023-11-21T00:05:40;7.30;99.90
7143;DHT22;3613;48.902;9.204;2023-11-21T00:08:09;7.40;99.90
7143;DHT22;3613;48.902;9.204;2023-11-21T00:10:36;7.30;99.90
7143;DHT22;3613;48.902;9.204;2023-11-21T00:13:06;7.30;99.90
7143;DHT22;3613;48.902;9.204;2023-11-21T00:15:33;7.30;99.90
7143;DHT22;3613;48.902;9.204;2023-11-21T00:18:00;7.40;99.90
7143;DHT22;3613;48.902;9.204;2023-11-21T00:20:25;7.50;99.90
7143;DHT22;3613;48.902;9.204;2023-11-21T00:22:51;7.50;99.90
7143;DHT22;3613;48.902;9.204;2023-11-21T00:25:16;7.60;99.90
7143;DHT22;3613;48.902;9.204;2023-11-21T00:27:43;7.60;99.90
7143;DHT22;3613;48.902;9.204;2023-11-21T00:30:09;7.70;99.90
7143;DHT22;3613;48.902;9.204;2023-11-21T00:32:38;7.80;99.90
7143;DHT22;3613;48.902;9.204;2023-11-21T00:35:04;7.80;99.90
7143;DHT22;3613;48.902;9.204;2023-11-21T00:37:29;7.80;99.90
7143;DHT22;3613;48.902;9.204;2023-11-21T00:39:57;7.90;99.90
7143;DHT22;3613;48.902;9.204;2023-11-21T00:42:23;7.80;99.90
7143;DHT22;3613;48.902;9.204;2023-11-21T00:44:48;7.80;99.90
7143;DHT22;3613;48.902;9.204;2023-11-21T00:47:14;7.90;99.90
7143;DHT22;3613;48.902;9.204;2023-11-21T00:49:40;7.90;99.90
7143;DHT22;3613;48.902;9.204;2023-11-21T00:52:08;7.90;99.90
7143;DHT22;3613;48.902;9.204;2023-11-21T00:54:33;7.90;99.90
7143;DHT22;3613;48.902;9.204;2023-11-21T00:56:59;7.90;99.90
7143;DHT22;3613;48.902;9.204;2023-11-21T00:59:25;7.90;99.90
7143;DHT22;3613;48.902;9.204;2023-11-21T01:01:53;7.90;99.90
7143;DHT22;3613;48.902;9.204;2023-11-21T01:04:19;8.20;99.90
7143;DHT22;3613;48.902;9.204;2023-11-21T01:06:47;7.90;99.90
7143;DHT22;3613;48.902;9.204;2023-11-21T01:09:15;8.60;99.90
7143;DHT22;3613;48.902;9.204;2023-11-21T01:11:45;8.00;99.90
7143;DHT22;3613;48.902;9.204;2023-11-21T01:14:11;8.00;99.90
7143;DHT22;3613;48.902;9.204;2023-11-21T01:16:39;8.10;99.90
7143;DHT22;3613;48.902;9.204;2023-11-21T01:19:05;8.00;99.90
7143;DHT22;3613;48.902;9.204;2023-11-21T01:21:33;8.10;99.90
7143;DHT22;3613;48.902;9.204;2023-11-21T01:24:01;8.10;99.90
7143;DHT22;3613;48.902;9.204;2023-11-21T01:26:28;8.10;99.90
7143;DHT22;3613;48.902;9.204;2023-11-21T01:28:53;8.10;99.90
7143;DHT22;3613;48.902;9.204;2023-11-21T01:31:22;8.10;99.90
7143;DHT22;3613;48.902;9.204;2023-11-21T01:33:50;8.00;99.90
7143;DHT22;3613;48.902;9.204;2023-11-21T01:36:18;8.00;99.90
7143;DHT22;3613;48.902;9.204;2023-11-21T01:38:43;8.00;99.90
7143;DHT22;3613;48.902;9.204;2023-11-21T01:41:09;8.00;99.90
7143;DHT22;3613;48.902;9.204;2023-11-21T01:43:36;8.00;99.90
7143;DHT22;3613;48.902;9.204;2023-11-21T01:46:06;8.00;99.90
7143;DHT22;3613;48.902;9.204;2023-11-21T01:48:33;8.00;99.90
7143;DHT22;3613;48.902;9.204;2023-11-21T01:51:00;8.00;99.90
7143;DHT22;3613;48.902;9.204;2023-11-21T01:53:26;8.00;99.90
7143;DHT22;3613;48.902;9.204;2023-11-21T01:55:53;8.00;99.90
7143;DHT22;3613;48.902;9.204;2023-11-21T01:58:20;8.10;99.90
7143;DHT22;3613;48.902;9.204;2023-11-21T02:00:45;8.10;99.90
7143;DHT22;3613;48.902;9.204;2023-11-21T02:03:11;8.10;99.90
7143;DHT22;3613;48.902;9.204;2023-11-21T02:05:37;8.10;99.90
7143;DHT22;3613;48.902;9.204;2023-11-21T02:08:03;8.20;99.90
7143;DHT22;3613;48.902;9.204;2023-11-21T02:10:33;8.20;99.90
7143;DHT22;3613;48.902;9.204;2023-11-21T02:13:01;8.20;99.90
7143;DHT22;3613;48.902;9.204;2023-11-21T02:15:29;8.20;99.90
7143;DHT22;3613;48.902;9.204;2023-11-21T02:17:55;8.20;99.90
7143;DHT22;3613;48.902;9.204;2023-11-21T02:20:23;8.20;99.90
7143;DHT22;3613;48.902;9.204;2023-11-21T02:22:55;8.20;99.90
7143;DHT22;3613;48.902;9.204;2023-11-21T02:25:31;8.20;99.90
7143;DHT22;3613;48.902;9.204;2023-11-21T02:27:58;8.20;99.90
7143;DHT22;3613;48.902;9.204;2023-11-21T02:30:27;8.30;99.90
7143;DHT22;3613;48.902;9.204;2023-11-21T02:32:53;8.30;99.90
7143;DHT22;3613;48.902;9.204;2023-11-21T02:35:22;8.30;99.90
7143;DHT22;3613;48.902;9.204;2023-11-21T02:37:48;8.30;99.90
7143;DHT22;3613;48.902;9.204;2023-11-21T02:40:14;8.20;99.90
7143;DHT22;3613;48.902;9.204;2023-11-21T02:42:46;8.30;99.90
7143;DHT22;3613;48.902;9.204;2023-11-21T02:45:13;8.30;99.90
7143;DHT22;3613;48.902;9.204;2023-11-21T02:47:42;8.30;99.90
7143;DHT22;3613;48.902;9.204;2023-11-21T02:50:08;8.30;99.90
7143;DHT22;3613;48.902;9.204;2023-11-21T02:52:35;8.30;99.90
7143;DHT22;3613;48.902;9.204;2023-11-21T02:55:01;8.30;99.90
7143;DHT22;3613;48.902;9.204;2023-11-21T02:57:30;8.30;99.90
7143;DHT22;3613;48.902;9.204;2023-11-21T02:59:55;8.30;99.90
7143;DHT22;3613;48.902;9.204;2023-11-21T03:02:21;8.30;99.90
7143;DHT22;3613;48.902;9.204;2023-11-21T03:04:47;8.20;99.90
7143;DHT22;3613;48.902;9.204;2023-11-21T03:07:16;8.10;99.90
7143;DHT22;3613;48.902;9.204;2023-11-21T03:09:44;7.90;99.90
7143;DHT22;3613;48.902;9.204;2023-11-21T03:12:10;7.90;99.90
7143;DHT22;3613;48.902;9.204;2023-11-21T03:14:38;8.00;99.90
7143;DHT22;3613;48.902;9.204;2023-11-21T03:17:03;8.10;99.90
7143;DHT22;3613;48.902;9.204;2023-11-21T03:19:32;8.10;99.90
7143;DHT22;3613;48.902;9.204;2023-11-21T03:22:00;8.10;99.90
7143;DHT22;3613;48.902;9.204;2023-11-21T03:24:28;8.20;99.90
7143;DHT22;3613;48.902;9.204;2023-11-21T03:26:54;8.20;99.90
7143;DHT22;3613;48.902;9.204;2023-11-21T03:29:19;8.20;99.90
7143;DHT22;3613;48.902;9.204;2023-11-21T03:31:45;8.20;99.90
7143;DHT22;3613;48.902;9.204;2023-11-21T03:34:22;8.30;99.90
7143;DHT22;3613;48.902;9.204;2023-11-21T03:36:48;8.20;99.90
7143;DHT22;3613;48.902;9.204;2023-11-21T03:39:14;8.20;99.90
7143;DHT22;3613;48.902;9.204;2023-11-21T03:41:39;8.20;99.90
7143;DHT22;3613;48.902;9.204;2023-11-21T03:44:05;8.20;99.90
7143;DHT22;3613;48.902;9.204;2023-11-21T03:46:31;8.20;99.90
7143;DHT22;3613;48.902;9.204;2023-11-21T03:48:56;8.20;99.90
7143;DHT22;3613;48.902;9.204;2023-11-21T03:51:24;8.20;99.90
7143;DHT22;3613;48.902;9.204;2023-11-21T03:53:50;8.10;99.90
7143;DHT22;3613;48.902;9.204;2023-11-21T03:56:15;8.10;99.90
7143;DHT22;3613;48.902;9.204;2023-11-21T03:58:43;8.10;99.90
7143;DHT22;3613;48.902;9.204;2023-11-21T04:01:11;8.10;99.90
7143;DHT22;3613;48.902;9.204;2023-11-21T04:03:39;8.10;99.90
7143;DHT22;3613;48.902;9.204;2023-11-21T04:06:08;8.10;99.90
7143;DHT22;3613;48.902;9.204;2023-11-21T04:08:33;7.90;99.90
7143;DHT22;3613;48.902;9.204;2023-11-21T04:10:59;7.90;99.90
7143;DHT22;3613;48.902;9.204;2023-11-21T04:13:25;7.90;99.90
7143;DHT22;3613;48.902;9.204;2023-11-21T04:15:50;8.00;99.90
7143;DHT22;3613;48.902;9.204;2023-11-21T04:18:16;8.10;99.90
7143;DHT22;3613;48.902;9.204;2023-11-21T04:23:10;8.10;99.90
7143;DHT22;3613;48.902;9.204;2023-11-21T04:25:39;8.10;99.90
7143;DHT22;3613;48.902;9.204;2023-11-21T04:30:30;8.10;99.90
7143;DHT22;3613;48.902;9.204;2023-11-21T04:32:56;8.00;99.90
7143;DHT22;3613;48.902;9.204;2023-11-21T04:37:48;8.00;99.90
7143;DHT22;3613;48.902;9.204;2023-11-21T04:45:08;7.90;99.90
7143;DHT22;3613;48.902;9.204;2023-11-21T04:47:35;7.80;99.90
7143;DHT22;3613;48.902;9.204;2023-11-21T04:52:27;7.90;99.90
7143;DHT22;3613;48.902;9.204;2023-11-21T04:57:23;7.90;99.90
7143;DHT22;3613;48.902;9.204;2023-11-21T04:59:49;7.90;99.90
7143;DHT22;3613;48.902;9.204;2023-11-21T05:02:16;7.90;99.90
7143;DHT22;3613;48.902;9.204;2023-11-21T05:09:34;7.90;99.90
7143;DHT22;3613;48.902;9.204;2023-11-21T05:12:01;7.90;99.90
7143;DHT22;3613;48.902;9.204;2023-11-21T05:16:53;7.90;99.90
7143;DHT22;3613;48.902;9.204;2023-11-21T05:19:21;7.90;99.90
7143;DHT22;3613;48.902;9.204;2023-11-21T05:21:47;7.90;99.90
7143;DHT22;3613;48.902;9.204;2023-11-21T05:29:04;7.80;99.90
7143;DHT22;3613;48.902;9.204;2023-11-21T05:33:56;7.80;99.90
7143;DHT22;3613;48.902;9.204;2023-11-21T05:41:15;7.90;99.90
7143;DHT22;3613;48.902;9.204;2023-11-21T05:43:43;7.90;99.90
7143;DHT22;3613;48.902;9.204;2023-11-21T05:51:06;7.90;99.90
7143;DHT22;3613;48.902;9.204;2023-11-21T05:56:00;8.00;99.90
7143;DHT22;3613;48.902;9.204;2023-11-21T06:03:20;8.00;99.90
7143;DHT22;3613;48.902;9.204;2023-11-21T06:05:48;8.00;99.90
7143;DHT22;3613;48.902;9.204;2023-11-21T06:18:06;7.90;99.90
7143;DHT22;3613;48.902;9.204;2023-11-21T06:20:35;7.90;99.90
7143;DHT22;3613;48.902;9.204;2023-11-21T06:23:05;7.90;99.90
7143;DHT22;3613;48.902;9.204;2023-11-21T06:25:31;7.90;99.90
7143;DHT22;3613;48.902;9.204;2023-11-21T06:28:03;7.80;99.90
7143;DHT22;3613;48.902;9.204;2023-11-21T06:32:55;7.80;99.90
7143;DHT22;3613;48.902;9.204;2023-11-21T06:35:21;7.70;99.90
7143;DHT22;3613;48.902;9.204;2023-11-21T06:37:47;7.80;99.90
7143;DHT22;3613;48.902;9.204;2023-11-21T06:42:46;7.90;99.90
7143;DHT22;3613;48.902;9.204;2023-11-21T06:45:12;7.90;99.90
7143;DHT22;3613;48.902;9.204;2023-11-21T06:50:06;8.00;99.90
7143;DHT22;3613;48.902;9.204;2023-11-21T06:55:03;8.00;99.90
7143;DHT22;3613;48.902;9.204;2023-11-21T07:00:01;8.00;99.90
7143;DHT22;3613;48.902;9.204;2023-11-21T07:04:55;8.00;99.90
7143;DHT22;3613;48.902;9.204;2023-11-21T07:12:17;8.20;99.90
7143;DHT22;3613;48.902;9.204;2023-11-21T07:14:43;8.20;99.90
7143;DHT22;3613;48.902;9.204;2023-11-21T07:17:11;8.20;99.90
7143;DHT22;3613;48.902;9.204;2023-11-21T07:24:36;8.30;99.90
7143;DHT22;3613;48.902;9.204;2023-11-21T07:29:29;8.30;99.90
7143;DHT22;3613;48.902;9.204;2023-11-21T07:36:51;8.50;99.90
7143;DHT22;3613;48.902;9.204;2023-11-21T07:39:17;8.50;99.90
7143;DHT22;3613;48.902;9.204;2023-11-21T07:41:42;8.50;99.90
7143;DHT22;3613;48.902;9.204;2023-11-21T07:44:15;8.60;99.90
7143;DHT22;3613;48.902;9.204;2023-11-21T07:46:43;8.70;99.90
7143;DHT22;3613;48.902;9.204;2023-11-21T07:51:35;8.80;99.90
7143;DHT22;3613;48.902;9.204;2023-11-21T07:54:04;8.80;99.90
7143;DHT22;3613;48.902;9.204;2023-11-21T07:56:30;8.90;99.90
7143;DHT22;3613;48.902;9.204;2023-11-21T08:01:22;9.10;99.90
7143;DHT22;3613;48.902;9.204;2023-11-21T08:08:43;9.10;99.90
7143;DHT22;3613;48.902;9.204;2023-11-21T08:13:36;9.20;99.90
7143;DHT22;3613;48.902;9.204;2023-11-21T08:16:07;9.20;99.90
7143;DHT22;3613;48.902;9.204;2023-11-21T08:20:59;9.40;99.90
7143;DHT22;3613;48.902;9.204;2023-11-21T08:23:25;9.50;99.90
7143;DHT22;3613;48.902;9.204;2023-11-21T08:25:55;9.60;99.90
7143;DHT22;3613;48.902;9.204;2023-11-21T08:28:21;9.70;99.90
7143;DHT22;3613;48.902;9.204;2023-11-21T08:30:51;9.80;99.90
7143;DHT22;3613;48.902;9.204;2023-11-21T08:35:44;10.70;99.90
7143;DHT22;3613;48.902;9.204;2023-11-21T08:38:11;10.90;99.90
7143;DHT22;3613;48.902;9.204;2023-11-21T08:40:37;11.10;99.90
7143;DHT22;3613;48.902;9.204;2023-11-21T08:43:03;11.20;99.90
7143;DHT22;3613;48.902;9.204;2023-11-21T08:45:30;11.30;99.90
7143;DHT22;3613;48.902;9.204;2023-11-21T08:47:56;11.30;99.90
7143;DHT22;3613;48.902;9.204;2023-11-21T08:52:48;11.20;99.90
7143;DHT22;3613;48.902;9.204;2023-11-21T08:55:14;11.10;99.90
7143;DHT22;3613;48.902;9.204;2023-11-21T08:57:40;11.00;99.90
7143;DHT22;3613;48.902;9.204;2023-11-21T09:00:09;10.90;99.90
7143;DHT22;3613;48.902;9.204;2023-11-21T09:02:41;10.90;99.90
7143;DHT22;3613;48.902;9.204;2023-11-21T09:05:11;10.90;99.90
7143;DHT22;3613;48.902;9.204;2023-11-21T09:07:44;10.80;99.90
7143;DHT22;3613;48.902;9.204;2023-11-21T09:12:40;10.80;99.90
7143;DHT22;3613;48.902;9.204;2023-11-21T09:15:06;10.80;99.90
7143;DHT22;3613;48.902;9.204;2023-11-21T09:17:37;10.80;99.90
7143;DHT22;3613;48.902;9.204;2023-11-21T09:22:31;10.80;99.90
7143;DHT22;3613;48.902;9.204;2023-11-21T09:24:57;10.70;99.90
7143;DHT22;3613;48.902;9.204;2023-11-21T09:27:27;10.80;99.90
7143;DHT22;3613;48.902;9.204;2023-11-21T09:32:20;10.90;99.90
7143;DHT22;3613;48.902;9.204;2023-11-21T09:34:49;11.00;99.90
7143;DHT22;3613;48.902;9.204;2023-11-21T09:37:14;11.10;99.90
7143;DHT22;3613;48.902;9.204;2023-11-21T09:39:40;11.20;99.90
7143;DHT22;3613;48.902;9.204;2023-11-21T09:44:48;11.30;99.90
7143;DHT22;3613;48.902;9.204;2023-11-21T09:47:19;11.40;99.90
7143;DHT22;3613;48.902;9.204;2023-11-21T09:49:48;11.30;99.90
7143;DHT22;3613;48.902;9.204;2023-11-21T09:52:23;11.30;99.90
7143;DHT22;3613;48.902;9.204;2023-11-21T09:54:54;11.30;99.90
7143;DHT22;3613;48.902;9.204;2023-11-21T09:57:26;11.40;99.90
7143;DHT22;3613;48.902;9.204;2023-11-21T09:59:53;11.30;99.90
7143;DHT22;3613;48.902;9.204;2023-11-21T10:02:28;11.30;99.90
7143;DHT22;3613;48.902;9.204;2023-11-21T10:04:59;11.10;99.90
7143;DHT22;3613;48.902;9.204;2023-11-21T10:07:25;11.00;99.90
7143;DHT22;3613;48.902;9.204;2023-11-21T10:09:54;10.80;99.90
7143;DHT22;3613;48.902;9.204;2023-11-21T10:12:21;10.60;99.90
7143;DHT22;3613;48.902;9.204;2023-11-21T10:14:50;10.50;99.90
7143;DHT22;3613;48.902;9.204;2023-11-21T10:17:19;10.40;99.90
7143;DHT22;3613;48.902;9.204;2023-11-21T10:19:51;10.40;99.90
7143;DHT22;3613;48.902;9.204;2023-11-21T10:22:22;10.30;99.90
7143;DHT22;3613;48.902;9.204;2023-11-21T10:27:15;10.20;99.90
7143;DHT22;3613;48.902;9.204;2023-11-21T10:34:35;10.30;99.90
7143;DHT22;3613;48.902;9.204;2023-11-21T10:37:12;10.50;99.90
7143;DHT22;3613;48.902;9.204;2023-11-21T10:39:39;10.50;99.90
7143;DHT22;3613;48.902;9.204;2023-11-21T10:42:08;10.70;99.90
7143;DHT22;3613;48.902;9.204;2023-11-21T10:44:34;10.90;99.90
7143;DHT22;3613;48.902;9.204;2023-11-21T10:47:00;11.00;99.90
7143;DHT22;3613;48.902;9.204;2023-11-21T10:54:24;11.40;99.90
7143;DHT22;3613;48.902;9.204;2023-11-21T10:57:00;11.50;99.90
7143;DHT22;3613;48.902;9.204;2023-11-21T10:59:30;11.50;99.90
7143;DHT22;3613;48.902;9.204;2023-11-21T11:01:59;11.70;99.90
7143;DHT22;3613;48.902;9.204;2023-11-21T11:04:29;11.80;99.90
7143;DHT22;3613;48.902;9.204;2023-11-21T11:06:57;11.90;99.90
7143;DHT22;3613;48.902;9.204;2023-11-21T11:09:23;12.00;99.90
7143;DHT22;3613;48.902;9.204;2023-11-21T11:11:52;11.90;99.90
7143;DHT22;3613;48.902;9.204;2023-11-21T11:14:20;11.90;99.90
7143;DHT22;3613;48.902;9.204;2023-11-21T11:16:53;11.90;99.90
7143;DHT22;3613;48.902;9.204;2023-11-21T11:19:19;11.90;99.90
7143;DHT22;3613;48.902;9.204;2023-11-21T11:27:44;11.00;99.90
7143;DHT22;3613;48.902;9.204;2023-11-21T11:33:25;10.60;99.90
7143;DHT22;3613;48.902;9.204;2023-11-21T11:38:34;10.50;99.90
7143;DHT22;3613;48.902;9.204;2023-11-21T11:41:05;10.50;99.90
7143;DHT22;3613;48.902;9.204;2023-11-21T11:43:31;10.50;99.90
7143;DHT22;3613;48.902;9.204;2023-11-21T11:46:10;10.60;99.90
7143;DHT22;3613;48.902;9.204;2023-11-21T11:48:39;10.50;99.90
7143;DHT22;3613;48.902;9.204;2023-11-21T11:51:11;10.50;99.90
7143;DHT22;3613;48.902;9.204;2023-11-21T11:53:41;10.60;99.90
7143;DHT22;3613;48.902;9.204;2023-11-21T11:56:22;10.60;99.90
7143;DHT22;3613;48.902;9.204;2023-11-21T11:58:55;10.70;99.90
7143;DHT22;3613;48.902;9.204;2023-11-21T12:01:22;10.80;99.90
7143;DHT22;3613;48.902;9.204;2023-11-21T12:07:05;11.30;99.90
7143;DHT22;3613;48.902;9.204;2023-11-21T12:09:33;11.50;99.90
7143;DHT22;3613;48.902;9.204;2023-11-21T12:12:00;12.20;99.90
7143;DHT22;3613;48.902;9.204;2023-11-21T12:14:31;12.90;99.90
7143;DHT22;3613;48.902;9.204;2023-11-21T12:16:59;13.40;99.90
7143;DHT22;3613;48.902;9.204;2023-11-21T12:21:52;14.10;99.90
7143;DHT22;3613;48.902;9.204;2023-11-21T12:24:17;14.10;99.90
7143;DHT22;3613;48.902;9.204;2023-11-21T12:26:43;14.00;99.90
7143;DHT22;3613;48.902;9.204;2023-11-21T12:29:12;13.80;99.90
7143;DHT22;3613;48.902;9.204;2023-11-21T12:31:37;13.50;99.90
7143;DHT22;3613;48.902;9.204;2023-11-21T12:34:03;13.00;99.90
7143;DHT22;3613;48.902;9.204;2023-11-21T12:36:29;12.70;99.90
7143;DHT22;3613;48.902;9.204;2023-11-21T12:38:55;12.20;99.90
7143;DHT22;3613;48.902;9.204;2023-11-21T12:41:26;11.90;99.90
7143;DHT22;3613;48.902;9.204;2023-11-21T12:43:52;11.20;99.90
7143;DHT22;3613;48.902;9.204;2023-11-21T12:46:20;10.70;99.90
7143;DHT22;3613;48.902;9.204;2023-11-21T12:48:46;10.30;99.90
7143;DHT22;3613;48.902;9.204;2023-11-21T12:51:12;10.20;99.90
7143;DHT22;3613;48.902;9.204;2023-11-21T12:53:42;10.00;99.90
7143;DHT22;3613;48.902;9.204;2023-11-21T12:56:10;9.80;99.90
7143;DHT22;3613;48.902;9.204;2023-11-21T12:58:39;9.80;99.90
7143;DHT22;3613;48.902;9.204;2023-11-21T13:01:07;9.80;99.90
7143;DHT22;3613;48.902;9.204;2023-11-21T13:03:46;9.80;99.90
7143;DHT22;3613;48.902;9.204;2023-11-21T13:06:14;9.80;99.90
7143;DHT22;3613;48.902;9.204;2023-11-21T13:08:40;9.80;99.90
7143;DHT22;3613;48.902;9.204;2023-11-21T13:11:06;9.70;99.90
7143;DHT22;3613;48.902;9.204;2023-11-21T13:13:34;9.70;99.90
7143;DHT22;3613;48.902;9.204;2023-11-21T13:16:02;9.60;99.90
7143;DHT22;3613;48.902;9.204;2023-11-21T13:18:32;9.70;99.90
7143;DHT22;3613;48.902;9.204;2023-11-21T13:21:01;10.50;99.90
7143;DHT22;3613;48.902;9.204;2023-11-21T13:23:28;9.70;99.90
7143;DHT22;3613;48.902;9.204;2023-11-21T13:25:56;9.80;99.90
7143;DHT22;3613;48.902;9.204;2023-11-21T13:28:26;9.80;99.90
7143;DHT22;3613;48.902;9.204;2023-11-21T13:30:57;9.90;99.90
7143;DHT22;3613;48.902;9.204;2023-11-21T13:33:23;9.90;99.90
7143;DHT22;3613;48.902;9.204;2023-11-21T13:35:53;9.80;99.90
7143;DHT22;3613;48.902;9.204;2023-11-21T13:38:23;9.90;99.90
7143;DHT22;3613;48.902;9.204;2023-11-21T13:40:52;9.80;99.90
7143;DHT22;3613;48.902;9.204;2023-11-21T13:43:25;9.80;99.90
7143;DHT22;3613;48.902;9.204;2023-11-21T13:45:56;9.70;99.90
7143;DHT22;3613;48.902;9.204;2023-11-21T13:48:31;9.60;99.90
7143;DHT22;3613;48.902;9.204;2023-11-21T13:51:20;9.50;99.90
7143;DHT22;3613;48.902;9.204;2023-11-21T13:53:47;9.40;99.90
7143;DHT22;3613;48.902;9.204;2023-11-21T13:56:20;9.30;99.90
7143;DHT22;3613;48.902;9.204;2023-11-21T13:58:52;9.20;99.90
7143;DHT22;3613;48.902;9.204;2023-11-21T14:01:24;9.10;99.90
7143;DHT22;3613;48.902;9.204;2023-11-21T14:04:10;9.10;99.90
7143;DHT22;3613;48.902;9.204;2023-11-21T14:06:43;9.00;99.90
7143;DHT22;3613;48.902;9.204;2023-11-21T14:09:16;9.00;99.90
7143;DHT22;3613;48.902;9.204;2023-11-21T14:11:59;9.00;99.90
7143;DHT22;3613;48.902;9.204;2023-11-21T14:14:27;9.10;99.90
7143;DHT22;3613;48.902;9.204;2023-11-21T14:17:01;9.20;99.90
7143;DHT22;3613;48.902;9.204;2023-11-21T14:19:32;9.20;99.90
7143;DHT22;3613;48.902;9.204;2023-11-21T14:21:59;9.40;99.90
7143;DHT22;3613;48.902;9.204;2023-11-21T14:24:25;9.50;99.90
7143;DHT22;3613;48.902;9.204;2023-11-21T14:26:51;9.50;99.90
7143;DHT22;3613;48.902;9.204;2023-11-21T14:29:17;9.60;99.90
7143;DHT22;3613;48.902;9.204;2023-11-21T14:31:46;9.60;99.90
7143;DHT22;3613;48.902;9.204;2023-11-21T14:34:12;9.70;99.90
7143;DHT22;3613;48.902;9.204;2023-11-21T14:36:39;9.60;99.90
7143;DHT22;3613;48.902;9.204;2023-11-21T14:39:05;9.60;99.90
7143;DHT22;3613;48.902;9.204;2023-11-21T14:41:41;9.80;99.90
7143;DHT22;3613;48.902;9.204;2023-11-21T14:44:12;9.50;99.90
7143;DHT22;3613;48.902;9.204;2023-11-21T14:46:41;9.50;99.90
7143;DHT22;3613;48.902;9.204;2023-11-21T14:49:14;9.50;99.90
7143;DHT22;3613;48.902;9.204;2023-11-21T14:51:55;9.40;99.90
7143;DHT22;3613;48.902;9.204;2023-11-21T14:54:32;9.40;99.90
7143;DHT22;3613;48.902;9.204;2023-11-21T14:57:14;9.30;99.90
7143;DHT22;3613;48.902;9.204;2023-11-21T14:59:47;9.20;99.90
7143;DHT22;3613;48.902;9.204;2023-11-21T15:02:25;9.10;99.90
7143;DHT22;3613;48.902;9.204;2023-11-21T15:05:10;9.00;99.90
7143;DHT22;3613;48.902;9.204;2023-11-21T15:07:41;8.90;99.90
7143;DHT22;3613;48.902;9.204;2023-11-21T15:10:07;9.00;99.90
7143;DHT22;3613;48.902;9.204;2023-11-21T15:12:38;8.80;99.90
7143;DHT22;3613;48.902;9.204;2023-11-21T15:15:08;8.80;99.90
7143;DHT22;3613;48.902;9.204;2023-11-21T15:17:36;8.80;99.90
7143;DHT22;3613;48.902;9.204;2023-11-21T15:20:03;8.80;99.90
7143;DHT22;3613;48.902;9.204;2023-11-21T15:22:29;8.80;99.90
7143;DHT22;3613;48.902;9.204;2023-11-21T15:24:57;8.80;99.90
7143;DHT22;3613;48.902;9.204;2023-11-21T15:27:23;8.80;99.90
7143;DHT22;3613;48.902;9.204;2023-11-21T15:29:49;8.80;99.90
7143;DHT22;3613;48.902;9.204;2023-11-21T15:32:17;10.20;99.90
7143;DHT22;3613;48.902;9.204;2023-11-21T15:34:46;8.80;99.90
7143;DHT22;3613;48.902;9.204;2023-11-21T15:37:12;8.80;99.90
7143;DHT22;3613;48.902;9.204;2023-11-21T15:39:38;8.80;99.90
7143;DHT22;3613;48.902;9.204;2023-11-21T15:42:07;8.90;99.90
7143;DHT22;3613;48.902;9.204;2023-11-21T15:44:35;8.90;99.90
7143;DHT22;3613;48.902;9.204;2023-11-21T15:47:01;8.90;99.90
7143;DHT22;3613;48.902;9.204;2023-11-21T15:49:32;8.90;99.90
7143;DHT22;3613;48.902;9.204;2023-11-21T15:52:04;8.80;99.90
7143;DHT22;3613;48.902;9.204;2023-11-21T15:54:31;9.00;99.90
7143;DHT22;3613;48.902;9.204;2023-11-21T15:57:02;8.80;99.90
7143;DHT22;3613;48.902;9.204;2023-11-21T15:59:29;8.80;99.90
7143;DHT22;3613;48.902;9.204;2023-11-21T16:01:59;8.80;99.90
7143;DHT22;3613;48.902;9.204;2023-11-21T16:04:25;8.80;99.90
7143;DHT22;3613;48.902;9.204;2023-11-21T16:06:53;8.70;99.90
7143;DHT22;3613;48.902;9.204;2023-11-21T16:09:19;8.60;99.90
7143;DHT22;3613;48.902;9.204;2023-11-21T16:11:49;8.50;99.90
7143;DHT22;3613;48.902;9.204;2023-11-21T16:14:19;8.30;99.90
7143;DHT22;3613;48.902;9.204;2023-11-21T16:16:53;8.20;99.90
7143;DHT22;3613;48.902;9.204;2023-11-21T16:19:19;8.00;99.90
7143;DHT22;3613;48.902;9.204;2023-11-21T16:21:46;7.90;99.90
7143;DHT22;3613;48.902;9.204;2023-11-21T16:24:11;7.70;99.90
7143;DHT22;3613;48.902;9.204;2023-11-21T16:26:41;7.60;99.90
7143;DHT22;3613;48.902;9.204;2023-11-21T16:29:09;7.50;99.90
7143;DHT22;3613;48.902;9.204;2023-11-21T16:31:40;7.40;99.90
7143;DHT22;3613;48.902;9.204;2023-11-21T16:34:18;7.30;99.90
7143;DHT22;3613;48.902;9.204;2023-11-21T16:36:49;7.20;99.90
7143;DHT22;3613;48.902;9.204;2023-11-21T16:39:18;7.20;99.90
7143;DHT22;3613;48.902;9.204;2023-11-21T16:41:47;7.10;99.90
7143;DHT22;3613;48.902;9.204;2023-11-21T16:46:39;7.10;99.90
7143;DHT22;3613;48.902;9.204;2023-11-21T16:49:05;7.10;99.90
7143;DHT22;3613;48.902;9.204;2023-11-21T16:51:35;7.00;99.90
7143;DHT22;3613;48.902;9.204;2023-11-21T16:54:01;7.00;99.90
7143;DHT22;3613;48.902;9.204;2023-11-21T16:56:29;7.00;99.90
7143;DHT22;3613;48.902;9.204;2023-11-21T16:58:55;6.90;99.90
7143;DHT22;3613;48.902;9.204;2023-11-21T17:01:20;6.90;99.90
7143;DHT22;3613;48.902;9.204;2023-11-21T17:03:46;6.80;99.90
7143;DHT22;3613;48.902;9.204;2023-11-21T17:06:14;6.70;99.90
7143;DHT22;3613;48.902;9.204;2023-11-21T17:08:42;6.70;99.90
7143;DHT22;3613;48.902;9.204;2023-11-21T17:11:10;6.70;99.90
7143;DHT22;3613;48.902;9.204;2023-11-21T17:13:42;6.70;99.90
7143;DHT22;3613;48.902;9.204;2023-11-21T17:16:07;6.80;99.90
7143;DHT22;3613;48.902;9.204;2023-11-21T17:18:35;6.90;99.90
7143;DHT22;3613;48.902;9.204;2023-11-21T17:21:01;7.00;99.90
7143;DHT22;3613;48.902;9.204;2023-11-21T17:23:33;7.10;99.90
7143;DHT22;3613;48.902;9.204;2023-11-21T17:26:00;7.10;99.90
7143;DHT22;3613;48.902;9.204;2023-11-21T17:28:28;7.20;99.90
7143;DHT22;3613;48.902;9.204;2023-11-21T17:30:57;7.20;99.90
7143;DHT22;3613;48.902;9.204;2023-11-21T17:33:25;7.30;99.90
7143;DHT22;3613;48.902;9.204;2023-11-21T17:35:56;7.40;99.90
7143;DHT22;3613;48.902;9.204;2023-11-21T17:38:21;7.50;99.90
7143;DHT22;3613;48.902;9.204;2023-11-21T17:40:49;7.90;99.90
7143;DHT22;3613;48.902;9.204;2023-11-21T17:43:15;7.60;99.90
7143;DHT22;3613;48.902;9.204;2023-11-21T17:45:42;7.60;99.90
7143;DHT22;3613;48.902;9.204;2023-11-21T17:48:10;7.70;99.90
7143;DHT22;3613;48.902;9.204;2023-11-21T17:50:42;7.70;99.90
7143;DHT22;3613;48.902;9.204;2023-11-21T17:53:10;7.70;99.90
7143;DHT22;3613;48.902;9.204;2023-11-21T17:55:36;7.80;99.90
7143;DHT22;3613;48.902;9.204;2023-11-21T17:58:01;7.80;99.90
7143;DHT22;3613;48.902;9.204;2023-11-21T18:00:27;7.80;99.90
7143;DHT22;3613;48.902;9.204;2023-11-21T18:02:53;7.80;99.90
7143;DHT22;3613;48.902;9.204;2023-11-21T18:05:19;7.90;99.90
7143;DHT22;3613;48.902;9.204;2023-11-21T18:07:46;7.80;99.90
7143;DHT22;3613;48.902;9.204;2023-11-21T18:10:13;7.90;99.90
7143;DHT22;3613;48.902;9.204;2023-11-21T18:12:38;7.90;99.90
7143;DHT22;3613;48.902;9.204;2023-11-21T18:15:07;7.90;99.90
7143;DHT22;3613;48.902;9.204;2023-11-21T18:17:33;7.90;99.90
7143;DHT22;3613;48.902;9.204;2023-11-21T18:19:58;7.80;99.90
7143;DHT22;3613;48.902;9.204;2023-11-21T18:22:24;7.90;99.90
7143;DHT22;3613;48.902;9.204;2023-11-21T18:24:52;7.90;99.90
7143;DHT22;3613;48.902;9.204;2023-11-21T18:27:20;8.20;99.90
7143;DHT22;3613;48.902;9.204;2023-11-21T18:29:59;8.00;99.90
7143;DHT22;3613;48.902;9.204;2023-11-21T18:32:26;8.00;99.90
7143;DHT22;3613;48.902;9.204;2023-11-21T18:34:55;8.10;99.90
7143;DHT22;3613;48.902;9.204;2023-11-21T18:37:24;8.10;99.90
7143;DHT22;3613;48.902;9.204;2023-11-21T18:39:49;8.10;99.90
7143;DHT22;3613;48.902;9.204;2023-11-21T18:42:15;8.10;99.90
7143;DHT22;3613;48.902;9.204;2023-11-21T18:44:45;8.10;99.90
7143;DHT22;3613;48.902;9.204;2023-11-21T18:47:13;8.10;99.90
7143;DHT22;3613;48.902;9.204;2023-11-21T18:49:42;8.00;99.90
7143;DHT22;3613;48.902;9.204;2023-11-21T18:52:08;8.00;99.90